createdAt,value
2023-03-28T00:01:13.401Z,20.80
2023-03-28T00:03:43.736Z,15.83
2023-03-28T00:06:17.397Z,15.20
2023-03-28T00:08:48.069Z,18.77
2023-03-28T00:11:19.791Z,16.50
2023-03-28T00:13:49.297Z,14.55
2023-03-28T00:16:18.296Z,15.93
2023-03-28T00:18:51.070Z,16.88
2023-03-28T00:21:23.923Z,14.50
2023-03-28T00:23:53.912Z,18.75
2023-03-28T00:26:24.834Z,16.02
2023-03-28T00:28:53.699Z,18.98
2023-03-28T00:31:23.424Z,19.00
2023-03-28T00:33:54.638Z,22.23
2023-03-28T00:36:26.678Z,19.58
2023-03-28T00:38:56.107Z,18.35
2023-03-28T00:41:26.729Z,17.33
2023-03-28T00:43:56.973Z,17.92
2023-03-28T00:46:29.913Z,17.65
2023-03-28T00:49:03.466Z,16.88
2023-03-28T00:51:34.802Z,17.15
2023-03-28T00:54:04.950Z,17.38
2023-03-28T00:56:37.048Z,20.40
2023-03-28T00:59:09.556Z,20.55
2023-03-28T01:01:38.194Z,19.27
2023-03-28T01:04:10.359Z,16.75
2023-03-28T01:06:45.429Z,20.50
2023-03-28T01:09:18.646Z,24.00
2023-03-28T01:11:51.806Z,18.77
2023-03-28T01:14:22.710Z,19.43
2023-03-28T01:16:56.425Z,24.52
2023-03-28T01:19:39.978Z,24.30
2023-03-28T01:22:34.112Z,26.05
2023-03-28T01:25:25.773Z,23.98
2023-03-28T01:28:02.291Z,26.77
2023-03-28T01:31:31.201Z,29.30
2023-03-28T01:34:53.879Z,26.17
2023-03-28T01:37:31.635Z,22.77
2023-03-28T01:40:20.089Z,27.88
2023-03-28T01:43:07.706Z,28.92
2023-03-28T01:45:43.701Z,16.40
2023-03-28T01:48:18.453Z,26.25
2023-03-28T01:50:51.448Z,26.45
2023-03-28T01:53:23.749Z,37.10
2023-03-28T01:55:56.339Z,30.85
2023-03-28T01:58:37.728Z,25.60
2023-03-28T02:01:13.825Z,32.38
2023-03-28T02:03:47.979Z,23.33
2023-03-28T02:06:36.120Z,35.38
2023-03-28T02:09:09.865Z,27.35
2023-03-28T02:11:59.698Z,22.95
2023-03-28T02:14:38.015Z,25.00
2023-03-28T02:17:25.960Z,23.70
2023-03-28T02:20:17.141Z,24.42
2023-03-28T02:23:05.541Z,19.42
2023-03-28T02:25:50.787Z,27.17
2023-03-28T02:28:40.743Z,26.58
2023-03-28T02:31:14.845Z,30.35
2023-03-28T02:33:47.105Z,33.55
2023-03-28T02:36:23.926Z,28.23
2023-03-28T02:39:25.634Z,34.25
2023-03-28T02:42:08.997Z,33.00
2023-03-28T02:44:55.964Z,37.63
2023-03-28T02:47:29.116Z,31.75
2023-03-28T02:50:08.445Z,35.67
2023-03-28T02:52:41.303Z,35.22
2023-03-28T02:55:17.046Z,36.70
2023-03-28T02:58:21.399Z,39.88
2023-03-28T03:00:51.274Z,37.20
2023-03-28T03:03:20.208Z,43.70
2023-03-28T03:05:49.200Z,31.92
2023-03-28T03:08:18.113Z,33.45
2023-03-28T03:10:46.622Z,29.45
2023-03-28T03:13:16.898Z,30.88
2023-03-28T03:15:46.343Z,29.52
2023-03-28T03:18:41.846Z,29.33
2023-03-28T03:21:10.707Z,31.30
2023-03-28T03:23:43.337Z,27.80
2023-03-28T03:26:12.616Z,21.10
2023-03-28T03:29:03.863Z,26.23
2023-03-28T03:31:34.324Z,21.85
2023-03-28T03:34:09.197Z,23.23
2023-03-28T03:36:44.753Z,28.38
2023-03-28T03:39:14.242Z,25.25
2023-03-28T03:41:43.159Z,28.35
2023-03-28T03:44:13.647Z,22.42
2023-03-28T03:46:42.267Z,23.55
2023-03-28T03:49:11.836Z,19.92
2023-03-28T03:51:41.143Z,19.35
2023-03-28T03:54:11.691Z,23.83
2023-03-28T03:56:41.974Z,21.40
2023-03-28T03:59:10.956Z,20.02
2023-03-28T04:01:44.089Z,24.35
2023-03-28T04:04:31.666Z,23.13
2023-03-28T04:07:19.337Z,14.80
2023-03-28T04:09:50.942Z,13.20
2023-03-28T04:12:20.039Z,19.10
2023-03-28T04:14:51.879Z,14.73
2023-03-28T04:17:41.590Z,14.98
2023-03-28T04:20:15.325Z,19.63
2023-03-28T04:23:06.189Z,14.98
2023-03-28T04:25:36.921Z,18.83
2023-03-28T04:28:16.449Z,13.43
2023-03-28T04:31:12.178Z,16.55
2023-03-28T04:33:48.927Z,17.10
2023-03-28T04:36:22.721Z,17.40
2023-03-28T04:39:02.578Z,17.83
2023-03-28T04:41:55.713Z,18.00
2023-03-28T04:44:57.233Z,16.80
2023-03-28T04:47:26.530Z,20.83
2023-03-28T04:49:56.553Z,16.75
2023-03-28T04:52:25.663Z,18.98
2023-03-28T04:54:54.673Z,21.73
2023-03-28T05:00:01.593Z,16.00
2023-03-28T05:02:49.565Z,19.85
2023-03-28T05:05:24.090Z,20.58
2023-03-28T05:07:52.671Z,18.02
2023-03-28T05:10:23.817Z,20.30
2023-03-28T05:12:53.803Z,19.92
2023-03-28T05:15:24.731Z,20.83
2023-03-28T05:18:07.826Z,18.02
2023-03-28T05:20:39.755Z,17.85
2023-03-28T05:23:08.830Z,16.95
2023-03-28T05:25:40.714Z,18.98
2023-03-28T05:28:10.182Z,20.43
2023-03-28T05:30:48.783Z,23.13
2023-03-28T05:33:17.858Z,20.67
2023-03-28T05:35:49.682Z,26.98
2023-03-28T05:38:18.788Z,23.17
2023-03-28T05:40:52.779Z,27.15
2023-03-28T05:43:21.801Z,21.02
2023-03-28T05:45:51.017Z,20.83
2023-03-28T05:48:23.582Z,23.77
2023-03-28T05:50:54.173Z,20.15
2023-03-28T05:53:23.617Z,21.70
2023-03-28T05:55:52.300Z,32.72
2023-03-28T05:58:21.354Z,31.65
2023-03-28T06:00:50.900Z,25.83
2023-03-28T06:03:20.161Z,25.80
2023-03-28T06:05:49.534Z,34.65
2023-03-28T06:08:31.394Z,28.70
2023-03-28T06:11:02.605Z,24.88
2023-03-28T06:13:46.480Z,26.08
2023-03-28T06:16:19.370Z,22.65
2023-03-28T06:19:14.344Z,24.70
2023-03-28T06:21:50.826Z,29.65
2023-03-28T06:24:21.576Z,24.60
2023-03-28T06:26:50.522Z,24.73
2023-03-28T06:29:23.319Z,31.20
2023-03-28T06:32:03.645Z,28.52
2023-03-28T06:34:35.012Z,28.05
2023-03-28T06:37:06.087Z,28.73
2023-03-28T06:40:04.634Z,27.05
2023-03-28T06:42:33.783Z,32.75
2023-03-28T06:45:18.147Z,27.95
2023-03-28T06:48:00.059Z,31.05
2023-03-28T06:50:50.447Z,30.02
2023-03-28T06:53:22.120Z,29.88
2023-03-28T06:56:00.768Z,33.78
2023-03-28T06:58:35.514Z,25.45
2023-03-28T07:01:17.870Z,26.92
2023-03-28T07:06:50.584Z,26.85
2023-03-28T07:09:23.834Z,25.90
2023-03-28T07:12:09.546Z,25.58
2023-03-28T07:14:47.807Z,24.88
2023-03-28T07:17:20.097Z,26.17
2023-03-28T07:19:51.409Z,23.88
2023-03-28T07:22:20.488Z,22.15
2023-03-28T07:24:49.365Z,30.00
2023-03-28T07:27:19.800Z,25.67
2023-03-28T07:29:48.913Z,20.85
2023-03-28T07:34:47.781Z,24.65
2023-03-28T07:37:26.782Z,18.67
2023-03-28T07:40:30.891Z,27.33
2023-03-28T07:43:02.083Z,24.85
2023-03-28T07:45:32.348Z,19.90
2023-03-28T07:48:01.440Z,18.80
2023-03-28T07:50:30.766Z,21.17
2023-03-28T07:53:01.019Z,18.40
2023-03-28T07:55:48.361Z,17.42
2023-03-28T07:58:27.628Z,16.10
2023-03-28T08:01:06.163Z,20.08
2023-03-28T08:03:48.081Z,13.60
2023-03-28T08:06:31.706Z,15.77
2023-03-28T08:09:03.036Z,19.67
2023-03-28T08:11:41.327Z,14.25
2023-03-28T08:14:13.053Z,13.60
2023-03-28T08:16:43.416Z,16.08
2023-03-28T08:19:13.644Z,14.68
2023-03-28T08:22:10.738Z,12.90
2023-03-28T08:24:49.631Z,12.85
2023-03-28T08:27:23.529Z,11.35
2023-03-28T08:29:59.482Z,12.57
2023-03-28T08:32:30.433Z,11.70
2023-03-28T08:35:02.942Z,9.77
2023-03-28T08:37:32.727Z,7.32
2023-03-28T08:40:07.686Z,5.63
2023-03-28T08:42:52.618Z,10.40
2023-03-28T08:45:34.531Z,6.28
2023-03-28T08:48:10.020Z,5.25
2023-03-28T08:50:44.265Z,10.68
2023-03-28T08:53:20.906Z,8.02
2023-03-28T08:55:52.235Z,6.53
2023-03-28T08:58:23.612Z,11.45
2023-03-28T09:00:55.708Z,6.50
2023-03-28T09:03:25.850Z,11.35
2023-03-28T09:06:06.795Z,7.07
2023-03-28T09:08:43.401Z,9.20
2023-03-28T09:11:32.120Z,9.10
2023-03-28T09:14:16.340Z,4.97
2023-03-28T09:16:56.561Z,16.48
2023-03-28T09:19:47.667Z,8.38
2023-03-28T09:23:18.539Z,8.63
2023-03-28T09:26:09.561Z,12.82
2023-03-28T09:28:44.305Z,19.17
2023-03-28T09:31:15.653Z,13.23
2023-03-28T09:33:49.024Z,13.95
2023-03-28T09:36:41.198Z,14.55
2023-03-28T09:39:22.018Z,15.73
2023-03-28T09:41:54.814Z,14.02
2023-03-28T09:44:54.103Z,17.63
2023-03-28T09:47:53.505Z,15.05
2023-03-28T09:50:27.802Z,18.13
2023-03-28T09:52:59.923Z,16.80
2023-03-28T09:55:30.714Z,14.50
2023-03-28T09:58:05.508Z,14.98
2023-03-28T10:00:43.683Z,16.55
2023-03-28T10:03:34.905Z,17.67
2023-03-28T10:06:21.755Z,16.45
2023-03-28T10:08:51.878Z,18.73
2023-03-28T10:11:46.188Z,15.32
2023-03-28T10:14:31.423Z,10.25
2023-03-28T10:17:03.677Z,9.55
2023-03-28T10:19:44.434Z,8.35
2023-03-28T10:22:27.143Z,10.13
2023-03-28T10:24:58.898Z,7.65
2023-03-28T10:27:30.199Z,7.40
2023-03-28T10:30:00.568Z,6.50
2023-03-28T10:32:34.543Z,6.43
2023-03-28T10:35:31.174Z,6.07
2023-03-28T10:38:18.407Z,8.13
2023-03-28T10:41:11.073Z,6.20
2023-03-28T10:43:59.095Z,7.38
2023-03-28T10:46:41.298Z,7.13
2023-03-28T10:49:20.947Z,12.02
2023-03-28T10:51:59.617Z,6.45
2023-03-28T10:54:50.521Z,7.05
2023-03-28T10:57:41.569Z,6.85
2023-03-28T11:00:14.871Z,6.28
2023-03-28T11:03:18.879Z,8.40
2023-03-28T11:06:08.220Z,6.03
2023-03-28T11:08:46.801Z,9.73
2023-03-28T11:11:36.180Z,4.22
2023-03-28T11:14:16.130Z,8.07
2023-03-28T11:16:51.026Z,5.70
2023-03-28T11:19:57.289Z,6.53
2023-03-28T11:22:35.703Z,5.43
2023-03-28T11:25:14.167Z,5.35
2023-03-28T11:28:23.986Z,4.40
2023-03-28T11:30:59.063Z,3.40
2023-03-28T11:33:51.466Z,4.25
2023-03-28T11:36:29.669Z,4.47
2023-03-28T11:39:02.136Z,6.30
2023-03-28T11:41:34.123Z,5.18
2023-03-28T11:44:13.849Z,7.50
2023-03-28T11:46:45.541Z,5.68
2023-03-28T11:49:20.134Z,8.63
2023-03-28T11:51:54.966Z,3.83
2023-03-28T11:54:32.286Z,3.00
2023-03-28T11:57:02.761Z,3.45
2023-03-28T11:59:50.094Z,6.65
2023-03-28T12:02:29.545Z,5.65
2023-03-28T12:05:02.079Z,3.25
2023-03-28T12:07:37.447Z,3.05
2023-03-28T12:10:28.551Z,4.45
2023-03-28T12:13:05.602Z,3.08
2023-03-28T12:15:44.925Z,4.30
2023-03-28T12:18:21.355Z,9.52
2023-03-28T12:20:56.191Z,4.93
2023-03-28T12:23:39.571Z,6.45
2023-03-28T12:26:58.166Z,2.92
2023-03-28T12:29:33.634Z,4.53
2023-03-28T12:32:08.352Z,2.78
2023-03-28T12:34:44.742Z,6.85
2023-03-28T12:37:55.939Z,10.40
2023-03-28T12:40:32.054Z,5.57
2023-03-28T12:43:01.379Z,4.72
2023-03-28T12:45:32.701Z,4.82
2023-03-28T12:48:08.459Z,9.40
2023-03-28T12:50:46.226Z,9.60
2023-03-28T12:53:16.623Z,7.82
2023-03-28T12:55:49.669Z,3.72
2023-03-28T12:58:26.691Z,6.10
2023-03-28T13:01:22.495Z,5.18
2023-03-28T13:04:26.768Z,3.40
2023-03-28T13:07:08.338Z,7.75
2023-03-28T13:09:57.097Z,9.82
2023-03-28T13:12:30.882Z,3.28
2023-03-28T13:15:01.916Z,3.53
2023-03-28T13:17:34.301Z,7.57
2023-03-28T13:20:27.849Z,3.75
2023-03-28T13:23:01.546Z,3.40
2023-03-28T13:25:32.513Z,4.47
2023-03-28T13:28:03.646Z,7.78
2023-03-28T13:30:33.655Z,2.97
2023-03-28T13:33:07.900Z,2.47
2023-03-28T13:35:45.966Z,7.07
2023-03-28T13:38:16.918Z,8.45
2023-03-28T13:40:51.380Z,6.55
2023-03-28T13:43:38.348Z,5.68
2023-03-28T13:46:13.371Z,3.63
2023-03-28T13:48:54.451Z,11.05
2023-03-28T13:51:27.603Z,6.03
2023-03-28T13:53:56.989Z,10.90
2023-03-28T13:56:27.704Z,4.30
2023-03-28T14:01:27.445Z,3.30
2023-03-28T14:03:57.103Z,2.63
2023-03-28T14:06:29.312Z,2.93
2023-03-28T14:09:02.429Z,6.75
2023-03-28T14:11:33.762Z,3.15
2023-03-28T14:14:09.601Z,3.90
2023-03-28T14:16:38.722Z,3.88
2023-03-28T14:19:07.981Z,7.20
2023-03-28T14:21:38.414Z,3.63
2023-03-28T14:24:08.381Z,4.18
2023-03-28T14:26:37.572Z,6.13
2023-03-28T14:29:08.987Z,4.57
2023-03-28T14:31:40.449Z,4.05
2023-03-28T14:34:18.776Z,9.98
2023-03-28T14:37:00.961Z,5.60
2023-03-28T14:39:31.764Z,7.07
2023-03-28T14:42:03.878Z,5.60
2023-03-28T14:44:37.543Z,8.48
2023-03-28T14:47:06.597Z,3.00
2023-03-28T14:49:35.229Z,6.25
2023-03-28T14:52:11.994Z,5.90
2023-03-28T14:54:46.628Z,2.95
2023-03-28T14:57:16.704Z,3.95
2023-03-28T14:59:48.044Z,5.22
2023-03-28T15:02:22.606Z,5.30
2023-03-28T15:04:51.361Z,5.60
2023-03-28T15:07:24.055Z,2.83
2023-03-28T15:10:10.146Z,7.00
2023-03-28T15:12:44.509Z,7.57
2023-03-28T15:15:22.628Z,8.88
2023-03-28T15:17:52.811Z,3.10
2023-03-28T15:22:56.858Z,4.65
2023-03-28T15:25:26.228Z,5.13
2023-03-28T15:27:57.896Z,5.85
2023-03-28T15:30:26.731Z,5.07
2023-03-28T15:33:01.906Z,6.97
2023-03-28T15:35:33.148Z,5.82
2023-03-28T15:38:07.968Z,5.57
2023-03-28T15:40:40.809Z,5.80
2023-03-28T15:43:10.215Z,6.97
2023-03-28T15:45:41.943Z,3.90
2023-03-28T15:48:20.104Z,8.45
2023-03-28T15:50:53.435Z,5.57
2023-03-28T15:53:27.401Z,3.60
2023-03-28T15:55:56.779Z,8.85
2023-03-28T15:58:25.496Z,5.65
2023-03-28T16:00:55.382Z,5.38
2023-03-28T16:03:32.796Z,4.72
2023-03-28T16:06:23.067Z,9.13
2023-03-28T16:09:15.026Z,4.53
2023-03-28T16:11:45.081Z,5.30
2023-03-28T16:17:25.852Z,5.20
2023-03-28T16:20:14.953Z,4.95
2023-03-28T16:22:43.956Z,5.78
2023-03-28T16:25:14.409Z,6.18
2023-03-28T16:27:43.293Z,6.68
2023-03-28T16:30:18.938Z,6.60
2023-03-28T16:32:47.723Z,7.28
2023-03-28T16:35:16.598Z,5.85
2023-03-28T16:37:46.208Z,5.60
2023-03-28T16:40:16.857Z,9.32
2023-03-28T16:42:45.838Z,4.20
2023-03-28T16:45:16.106Z,9.90
2023-03-28T16:47:44.854Z,7.88
2023-03-28T16:50:13.880Z,8.93
2023-03-28T16:52:42.780Z,5.00
2023-03-28T16:55:13.261Z,7.85
2023-03-28T16:57:43.964Z,5.72
2023-03-28T17:00:18.402Z,4.43
2023-03-28T17:02:48.209Z,7.07
2023-03-28T17:05:18.032Z,5.75
2023-03-28T17:07:46.432Z,6.73
2023-03-28T17:10:15.249Z,3.67
2023-03-28T17:12:45.939Z,4.43
2023-03-28T17:15:15.954Z,3.35
2023-03-28T17:20:15.833Z,5.13
2023-03-28T17:22:53.765Z,4.93
2023-03-28T17:25:24.150Z,4.72
2023-03-28T17:27:55.490Z,6.32
2023-03-28T17:30:24.896Z,4.45
2023-03-28T17:32:55.683Z,7.00
2023-03-28T17:35:25.618Z,5.68
2023-03-28T17:37:54.763Z,3.00
2023-03-28T17:40:24.352Z,5.75
2023-03-28T17:42:54.907Z,6.57
2023-03-28T17:45:26.477Z,3.95
2023-03-28T17:47:58.058Z,5.45
2023-03-28T17:50:28.929Z,7.38
2023-03-28T17:52:59.838Z,7.07
2023-03-28T17:55:29.291Z,5.57
2023-03-28T17:58:00.420Z,5.38
2023-03-28T18:00:31.490Z,6.60
2023-03-28T18:03:01.416Z,5.97
2023-03-28T18:05:50.618Z,5.85
2023-03-28T18:08:23.372Z,10.63
2023-03-28T18:10:53.686Z,6.75
2023-03-28T18:13:25.498Z,5.85
2023-03-28T18:15:54.941Z,8.38
2023-03-28T18:18:25.470Z,3.80
2023-03-28T18:20:55.431Z,5.32
2023-03-28T18:23:25.003Z,6.70
2023-03-28T18:25:54.899Z,4.67
2023-03-28T18:28:26.362Z,8.77
2023-03-28T18:30:55.913Z,8.73
2023-03-28T18:33:25.331Z,10.07
2023-03-28T18:35:54.709Z,5.07
2023-03-28T18:38:25.187Z,9.98
2023-03-28T18:40:59.038Z,9.23
2023-03-28T18:43:29.588Z,7.35
2023-03-28T18:46:04.598Z,9.13
2023-03-28T18:48:36.377Z,7.22
2023-03-28T18:51:07.868Z,8.75
2023-03-28T18:53:39.160Z,8.27
2023-03-28T18:56:15.751Z,7.70
2023-03-28T18:58:49.198Z,11.00
2023-03-28T19:01:19.849Z,7.07
2023-03-28T19:03:52.870Z,9.43
2023-03-28T19:06:22.685Z,12.15
2023-03-28T19:08:53.543Z,10.80
2023-03-28T19:11:23.892Z,10.77
2023-03-28T19:13:55.856Z,13.32
2023-03-28T19:16:26.969Z,8.25
2023-03-28T19:18:58.427Z,9.55
2023-03-28T19:23:57.689Z,16.65
2023-03-28T19:28:59.651Z,13.10
2023-03-28T19:31:29.655Z,10.23
2023-03-28T19:33:59.607Z,7.45
2023-03-28T19:36:30.204Z,11.80
2023-03-28T19:39:00.835Z,10.35
2023-03-28T19:41:30.663Z,11.63
2023-03-28T19:44:02.386Z,9.05
2023-03-28T19:46:34.748Z,13.45
2023-03-28T19:49:06.955Z,9.38
2023-03-28T19:51:37.421Z,8.75
2023-03-28T19:54:09.400Z,8.07
2023-03-28T19:56:39.222Z,10.73
2023-03-28T19:59:10.450Z,13.63
2023-03-28T20:01:40.452Z,10.23
2023-03-28T20:04:13.897Z,15.30
2023-03-28T20:06:43.888Z,10.02
2023-03-28T20:09:15.636Z,9.85
2023-03-28T20:11:46.012Z,10.55
2023-03-28T20:14:21.943Z,9.00
2023-03-28T20:16:52.476Z,17.17
2023-03-28T20:19:23.949Z,10.10
2023-03-28T20:21:58.001Z,10.95
2023-03-28T20:24:30.259Z,11.32
2023-03-28T20:27:00.113Z,9.98
2023-03-28T20:29:31.938Z,12.85
2023-03-28T20:32:01.128Z,10.05
2023-03-28T20:34:31.206Z,11.02
2023-03-28T20:37:01.186Z,14.30
2023-03-28T20:39:34.235Z,10.27
2023-03-28T20:42:05.854Z,10.63
2023-03-28T20:44:38.311Z,12.52
2023-03-28T20:47:08.784Z,12.80
2023-03-28T20:49:38.538Z,12.23
2023-03-28T20:54:37.783Z,11.60
2023-03-28T20:57:06.877Z,13.15
2023-03-28T20:59:40.684Z,10.27
2023-03-28T21:02:10.808Z,12.75
2023-03-28T21:04:39.290Z,13.05
2023-03-28T21:07:08.162Z,10.25
2023-03-28T21:09:37.978Z,13.40
2023-03-28T21:12:07.323Z,10.45
2023-03-28T21:14:37.466Z,8.90
2023-03-28T21:19:36.936Z,14.07
2023-03-28T21:22:05.665Z,12.18
2023-03-28T21:24:35.720Z,17.13
2023-03-28T21:29:33.105Z,8.13
2023-03-28T21:32:03.226Z,9.98
2023-03-28T21:34:34.393Z,10.07
2023-03-28T21:37:03.799Z,9.40
2023-03-28T21:39:32.691Z,7.47
2023-03-28T21:42:01.547Z,9.70
2023-03-28T21:44:30.867Z,9.23
2023-03-28T21:46:59.576Z,9.43
2023-03-28T21:49:30.727Z,7.72
2023-03-28T21:51:59.673Z,8.52
2023-03-28T21:54:28.364Z,9.30
2023-03-28T21:56:58.490Z,7.97
2023-03-28T22:01:56.243Z,7.13
2023-03-28T22:04:25.905Z,7.37
2023-03-28T22:06:56.715Z,9.85
2023-03-28T22:09:25.477Z,11.13
2023-03-28T22:11:54.677Z,6.68
2023-03-28T22:14:23.599Z,7.18
2023-03-28T22:16:51.906Z,9.48
2023-03-28T22:19:21.143Z,8.50
2023-03-28T22:21:49.809Z,7.35
2023-03-28T22:24:20.484Z,10.10
2023-03-28T22:26:49.275Z,12.38
2023-03-28T22:29:18.576Z,8.45
2023-03-28T22:31:46.934Z,11.35
2023-03-28T22:34:17.685Z,6.90
2023-03-28T22:36:49.500Z,6.35
2023-03-28T22:39:19.993Z,11.10
2023-03-28T22:41:51.188Z,10.25
2023-03-28T22:44:21.771Z,9.45
2023-03-28T22:49:22.177Z,8.77
2023-03-28T22:51:50.986Z,14.95
2023-03-28T22:54:23.567Z,8.35
2023-03-28T22:56:52.739Z,10.77
2023-03-28T22:59:21.390Z,11.43
2023-03-28T23:01:50.450Z,13.38
2023-03-28T23:04:19.325Z,10.32
2023-03-28T23:06:50.302Z,10.60
2023-03-28T23:09:21.238Z,12.32
2023-03-28T23:11:49.905Z,7.95
2023-03-28T23:14:18.796Z,11.70
2023-03-28T23:16:47.230Z,12.80
2023-03-28T23:19:16.423Z,8.50
2023-03-28T23:21:45.498Z,9.25
2023-03-28T23:24:14.254Z,9.88
2023-03-28T23:26:44.384Z,10.45
2023-03-28T23:31:41.323Z,11.15
2023-03-28T23:34:10.342Z,13.07
2023-03-28T23:36:41.374Z,12.90
2023-03-28T23:39:11.190Z,10.15
2023-03-28T23:41:39.962Z,9.05
2023-03-28T23:44:10.422Z,15.05
2023-03-28T23:46:39.586Z,15.68
2023-03-28T23:49:08.499Z,16.13
2023-03-28T23:51:37.264Z,14.45
2023-03-28T23:54:06.054Z,17.20
2023-03-28T23:56:34.864Z,11.68
2023-03-28T23:59:03.580Z,11.85
